sensor_id;sensor_type;location;lat;lon;timestamp;pressure;altitude;pressure_sealevel;temperature;humidity
56414;BME280;42318;48.452;19.526;2024-03-02T00:00:08;97737.81;;;22.28;56.27
56414;BME280;42318;48.452;19.526;2024-03-02T00:03:33;97740.56;;;22.28;56.19
56414;BME280;42318;48.452;19.526;2024-03-02T00:06:34;97728.81;;;22.28;55.94
56414;BME280;42318;48.452;19.526;2024-03-02T00:09:35;97737.00;;;22.28;55.83
56414;BME280;42318;48.452;19.526;2024-03-02T00:12:40;97740.56;;;22.28;55.88
56414;BME280;42318;48.452;19.526;2024-03-02T00:15:45;97733.19;;;22.29;56.05
56414;BME280;42318;48.452;19.526;2024-03-02T00:18:46;97732.38;;;22.28;55.91
56414;BME280;42318;48.452;19.526;2024-03-02T00:21:47;97732.06;;;22.30;55.98
56414;BME280;42318;48.452;19.526;2024-03-02T00:24:48;97732.06;;;22.30;56.07
56414;BME280;42318;48.452;19.526;2024-03-02T00:27:49;97727.72;;;22.29;55.84
56414;BME280;42318;48.452;19.526;2024-03-02T00:31:06;97723.88;;;22.30;55.75
56414;BME280;42318;48.452;19.526;2024-03-02T00:34:08;97727.44;;;22.30;56.00
56414;BME280;42318;48.452;19.526;2024-03-02T00:37:09;97719.59;;;22.23;55.66
56414;BME280;42318;48.452;19.526;2024-03-02T00:40:10;97730.16;;;22.30;55.88
56414;BME280;42318;48.452;19.526;2024-03-02T00:46:33;97734.00;;;22.29;55.95
56414;BME280;42318;48.452;19.526;2024-03-02T00:49:33;97729.09;;;22.26;56.08
56414;BME280;42318;48.452;19.526;2024-03-02T00:52:34;97722.25;;;22.29;55.66
56414;BME280;42318;48.452;19.526;2024-03-02T00:55:36;97729.34;;;22.30;55.95
56414;BME280;42318;48.452;19.526;2024-03-02T00:58:38;97710.53;;;22.28;55.95
56414;BME280;42318;48.452;19.526;2024-03-02T01:01:38;97720.06;;;22.31;55.86
56414;BME280;42318;48.452;19.526;2024-03-02T01:04:39;97712.69;;;22.31;55.63
56414;BME280;42318;48.452;19.526;2024-03-02T01:07:40;97708.63;;;22.29;56.12
56414;BME280;42318;48.452;19.526;2024-03-02T01:10:40;97710.88;;;22.21;55.65
56414;BME280;42318;48.452;19.526;2024-03-02T01:13:41;97697.53;;;22.20;55.81
56414;BME280;42318;48.452;19.526;2024-03-02T01:16:42;97699.16;;;22.21;55.63
56414;BME280;42318;48.452;19.526;2024-03-02T01:19:42;97712.44;;;22.28;55.91
56414;BME280;42318;48.452;19.526;2024-03-02T01:22:43;97708.09;;;22.27;55.68
56414;BME280;42318;48.452;19.526;2024-03-02T01:25:43;97716.81;;;22.29;55.95
56414;BME280;42318;48.452;19.526;2024-03-02T01:28:44;97710.53;;;22.28;55.73
56414;BME280;42318;48.452;19.526;2024-03-02T01:31:45;97711.34;;;22.29;55.27
56414;BME280;42318;48.452;19.526;2024-03-02T01:34:45;97708.09;;;22.27;55.37
56414;BME280;42318;48.452;19.526;2024-03-02T01:37:46;97702.63;;;22.27;55.89
56414;BME280;42318;48.452;19.526;2024-03-02T01:40:47;97698.28;;;22.25;55.89
56414;BME280;42318;48.452;19.526;2024-03-02T01:43:47;97696.38;;;22.26;55.88
56414;BME280;42318;48.452;19.526;2024-03-02T01:46:48;97691.19;;;22.24;55.60
56414;BME280;42318;48.452;19.526;2024-03-02T01:49:49;97686.84;;;22.23;55.55
56414;BME280;42318;48.452;19.526;2024-03-02T01:52:50;97681.44;;;22.18;55.57
56414;BME280;42318;48.452;19.526;2024-03-02T01:55:51;97696.66;;;22.24;55.43
56414;BME280;42318;48.452;19.526;2024-03-02T01:58:51;97697.47;;;22.25;55.71
56414;BME280;42318;48.452;19.526;2024-03-02T02:01:52;97695.03;;;22.23;55.35
56414;BME280;42318;48.452;19.526;2024-03-02T02:04:52;97700.47;;;22.23;55.71
56414;BME280;42318;48.452;19.526;2024-03-02T02:07:53;97700.47;;;22.23;55.76
56414;BME280;42318;48.452;19.526;2024-03-02T02:10:54;97700.47;;;22.23;55.42
56414;BME280;42318;48.452;19.526;2024-03-02T02:13:54;97699.38;;;22.24;55.74
56414;BME280;42318;48.452;19.526;2024-03-02T02:16:56;97696.94;;;22.23;55.78
56414;BME280;42318;48.452;19.526;2024-03-02T02:19:56;97696.13;;;22.22;55.61
56414;BME280;42318;48.452;19.526;2024-03-02T02:22:59;97692.31;;;22.23;55.73
56414;BME280;42318;48.452;19.526;2024-03-02T02:25:59;97681.69;;;22.22;55.78
56414;BME280;42318;48.452;19.526;2024-03-02T02:29:00;97679.75;;;22.22;55.77
56414;BME280;42318;48.452;19.526;2024-03-02T02:32:00;97675.13;;;22.23;55.39
56414;BME280;42318;48.452;19.526;2024-03-02T02:35:01;97669.94;;;22.21;55.50
56414;BME280;42318;48.452;19.526;2024-03-02T02:38:03;97663.38;;;22.22;55.54
56414;BME280;42318;48.452;19.526;2024-03-02T02:41:03;97668.03;;;22.22;55.34
56414;BME280;42318;48.452;19.526;2024-03-02T02:44:04;97666.13;;;22.22;55.31
56414;BME280;42318;48.452;19.526;2024-03-02T02:47:05;97655.50;;;22.21;55.64
56414;BME280;42318;48.452;19.526;2024-03-02T02:50:09;97654.75;;;22.15;55.63
56414;BME280;42318;48.452;19.526;2024-03-02T02:53:10;97672.97;;;22.20;55.67
56414;BME280;42318;48.452;19.526;2024-03-02T02:56:11;97664.78;;;22.20;55.66
56414;BME280;42318;48.452;19.526;2024-03-02T02:59:11;97667.81;;;22.18;55.80
56414;BME280;42318;48.452;19.526;2024-03-02T03:02:12;97668.31;;;22.20;55.65
56414;BME280;42318;48.452;19.526;2024-03-02T03:05:13;97662.13;;;22.15;55.40
56414;BME280;42318;48.452;19.526;2024-03-02T03:08:14;97672.69;;;22.21;55.69
56414;BME280;42318;48.452;19.526;2024-03-02T03:11:16;97663.22;;;22.14;55.31
56414;BME280;42318;48.452;19.526;2024-03-02T03:14:17;97674.59;;;22.21;55.37
56414;BME280;42318;48.452;19.526;2024-03-02T03:17:17;97675.69;;;22.20;55.51
56414;BME280;42318;48.452;19.526;2024-03-02T03:20:18;97675.69;;;22.20;55.73
56414;BME280;42318;48.452;19.526;2024-03-02T03:23:19;97673.31;;;22.13;55.35
56414;BME280;42318;48.452;19.526;2024-03-02T03:26:19;97680.34;;;22.19;55.77
56414;BME280;42318;48.452;19.526;2024-03-02T03:29:20;97678.44;;;22.20;55.49
56414;BME280;42318;48.452;19.526;2024-03-02T03:32:20;97668.38;;;22.15;55.45
56414;BME280;42318;48.452;19.526;2024-03-02T03:35:21;97681.97;;;22.20;55.47
56414;BME280;42318;48.452;19.526;2024-03-02T03:38:21;97679.25;;;22.20;55.62
56414;BME280;42318;48.452;19.526;2024-03-02T03:41:22;97674.06;;;22.19;55.45
56414;BME280;42318;48.452;19.526;2024-03-02T03:44:23;97688.53;;;22.19;55.65
56414;BME280;42318;48.452;19.526;2024-03-02T03:47:23;97690.44;;;22.19;55.53
56414;BME280;42318;48.452;19.526;2024-03-02T03:50:24;97682.78;;;22.21;55.63
56414;BME280;42318;48.452;19.526;2024-03-02T03:53:25;97694.78;;;22.20;55.61
56414;BME280;42318;48.452;19.526;2024-03-02T03:56:25;97693.97;;;22.19;55.31
56414;BME280;42318;48.452;19.526;2024-03-02T03:59:26;97688.81;;;22.18;55.48
56414;BME280;42318;48.452;19.526;2024-03-02T04:02:26;97694.84;;;22.15;55.71
56414;BME280;42318;48.452;19.526;2024-03-02T04:05:27;97693.97;;;22.19;55.13
56414;BME280;42318;48.452;19.526;2024-03-02T04:08:27;97690.44;;;22.19;55.76
56414;BME280;42318;48.452;19.526;2024-03-02T04:11:28;97699.72;;;22.18;55.69
56414;BME280;42318;48.452;19.526;2024-03-02T04:14:28;97701.34;;;22.19;55.29
56414;BME280;42318;48.452;19.526;2024-03-02T04:17:31;97701.41;;;22.14;55.45
56414;BME280;42318;48.452;19.526;2024-03-02T04:20:32;97707.63;;;22.19;55.44
56414;BME280;42318;48.452;19.526;2024-03-02T04:23:33;97712.28;;;22.19;55.27
56414;BME280;42318;48.452;19.526;2024-03-02T04:26:33;97713.09;;;22.19;55.49
56414;BME280;42318;48.452;19.526;2024-03-02T04:29:34;97711.47;;;22.18;55.25
56414;BME280;42318;48.452;19.526;2024-03-02T04:32:34;97715.00;;;22.19;55.52
56414;BME280;42318;48.452;19.526;2024-03-02T04:35:37;97712.56;;;22.17;55.36
56414;BME280;42318;48.452;19.526;2024-03-02T04:38:38;97718.53;;;22.19;55.55
56414;BME280;42318;48.452;19.526;2024-03-02T04:41:39;97723.19;;;22.19;55.36
56414;BME280;42318;48.452;19.526;2024-03-02T04:44:39;97711.47;;;22.18;55.10
56414;BME280;42318;48.452;19.526;2024-03-02T04:47:40;97718.00;;;22.17;55.45
56414;BME280;42318;48.452;19.526;2024-03-02T04:50:40;97719.13;;;22.16;55.56
56414;BME280;42318;48.452;19.526;2024-03-02T04:53:41;97723.47;;;22.17;55.61
56414;BME280;42318;48.452;19.526;2024-03-02T04:56:42;97727.00;;;22.18;55.33
56414;BME280;42318;48.452;19.526;2024-03-02T04:59:49;97733.28;;;22.18;55.43
56414;BME280;42318;48.452;19.526;2024-03-02T05:02:50;97737.94;;;22.18;55.62
56414;BME280;42318;48.452;19.526;2024-03-02T05:05:51;97733.28;;;22.18;55.33
56414;BME280;42318;48.452;19.526;2024-03-02T05:08:52;97738.75;;;22.18;55.29
56414;BME280;42318;48.452;19.526;2024-03-02T05:11:52;97746.13;;;22.18;55.96
56414;BME280;42318;48.452;19.526;2024-03-02T05:15:13;97749.66;;;22.18;55.39
56414;BME280;42318;48.452;19.526;2024-03-02T05:18:14;97743.38;;;22.18;55.48
56414;BME280;42318;48.452;19.526;2024-03-02T05:21:15;97745.59;;;22.16;55.49
56414;BME280;42318;48.452;19.526;2024-03-02T05:24:15;97758.94;;;22.17;55.42
56414;BME280;42318;48.452;19.526;2024-03-02T05:27:16;97760.03;;;22.16;55.21
56414;BME280;42318;48.452;19.526;2024-03-02T05:30:17;97761.97;;;22.16;55.52
56414;BME280;42318;48.452;19.526;2024-03-02T05:33:17;97756.53;;;22.11;55.58
56414;BME280;42318;48.452;19.526;2024-03-02T05:36:18;97767.94;;;22.18;55.26
56414;BME280;42318;48.452;19.526;2024-03-02T05:39:18;97774.50;;;22.17;55.13
56414;BME280;42318;48.452;19.526;2024-03-02T05:42:19;97771.78;;;22.17;55.34
56414;BME280;42318;48.452;19.526;2024-03-02T05:45:20;97781.88;;;22.16;55.30
56414;BME280;42318;48.452;19.526;2024-03-02T05:48:20;97772.88;;;22.16;55.31
56414;BME280;42318;48.452;19.526;2024-03-02T05:51:21;97774.25;;;22.13;55.30
56414;BME280;42318;48.452;19.526;2024-03-02T05:54:22;97788.97;;;22.17;55.49
56414;BME280;42318;48.452;19.526;2024-03-02T05:57:22;97785.41;;;22.17;55.49
56414;BME280;42318;48.452;19.526;2024-03-02T06:00:55;97792.78;;;22.16;55.54
56414;BME280;42318;48.452;19.526;2024-03-02T06:03:56;97790.88;;;22.17;55.67
56414;BME280;42318;48.452;19.526;2024-03-02T06:06:57;97780.25;;;22.10;55.30
56414;BME280;42318;48.452;19.526;2024-03-02T06:09:58;97793.59;;;22.17;55.28
56414;BME280;42318;48.452;19.526;2024-03-02T06:12:59;97787.38;;;22.11;55.35
56414;BME280;42318;48.452;19.526;2024-03-02T06:15:59;97798.78;;;22.18;55.81
56414;BME280;42318;48.452;19.526;2024-03-02T06:19:00;97789.25;;;22.16;55.49
56414;BME280;42318;48.452;19.526;2024-03-02T06:22:01;97785.41;;;22.17;55.14
56414;BME280;42318;48.452;19.526;2024-03-02T06:25:02;97785.41;;;22.17;55.21
56414;BME280;42318;48.452;19.526;2024-03-02T06:28:03;97778.03;;;22.17;55.24
56414;BME280;42318;48.452;19.526;2024-03-02T06:31:04;97776.41;;;22.16;55.36
56414;BME280;42318;48.452;19.526;2024-03-02T06:34:05;97774.00;;;22.10;55.20
56414;BME280;42318;48.452;19.526;2024-03-02T06:37:06;97779.13;;;22.16;55.57
56414;BME280;42318;48.452;19.526;2024-03-02T06:40:07;97784.59;;;22.16;55.23
56414;BME280;42318;48.452;19.526;2024-03-02T06:43:08;97771.81;;;22.12;55.59
56414;BME280;42318;48.452;19.526;2024-03-02T06:46:09;97773.69;;;22.16;55.65
56414;BME280;42318;48.452;19.526;2024-03-02T06:49:10;97767.44;;;22.11;55.54
56414;BME280;42318;48.452;19.526;2024-03-02T06:52:13;97777.22;;;22.17;55.53
56414;BME280;42318;48.452;19.526;2024-03-02T06:55:14;97779.97;;;22.17;55.44
56414;BME280;42318;48.452;19.526;2024-03-02T06:58:14;97777.50;;;22.15;55.42
56414;BME280;42318;48.452;19.526;2024-03-02T07:01:18;97786.81;;;22.14;55.13
56414;BME280;42318;48.452;19.526;2024-03-02T07:04:20;97777.00;;;22.08;55.51
56414;BME280;42318;48.452;19.526;2024-03-02T07:07:21;97793.88;;;22.15;55.30
56414;BME280;42318;48.452;19.526;2024-03-02T07:10:21;97793.88;;;22.15;55.12
56414;BME280;42318;48.452;19.526;2024-03-02T07:13:22;97799.34;;;22.15;55.25
56414;BME280;42318;48.452;19.526;2024-03-02T07:16:23;97800.16;;;22.16;55.36
56414;BME280;42318;48.452;19.526;2024-03-02T07:19:33;97803.16;;;22.14;55.56
56414;BME280;42318;48.452;19.526;2024-03-02T07:22:33;97801.53;;;22.13;55.45
56414;BME280;42318;48.452;19.526;2024-03-02T07:25:34;97804.81;;;22.15;55.42
56414;BME280;42318;48.452;19.526;2024-03-02T07:28:35;97814.63;;;22.16;55.54
56414;BME280;42318;48.452;19.526;2024-03-02T07:31:36;97815.72;;;22.15;55.55
56414;BME280;42318;48.452;19.526;2024-03-02T07:34:37;97817.34;;;22.16;55.40
56414;BME280;42318;48.452;19.526;2024-03-02T07:37:41;97821.16;;;22.15;55.48
56414;BME280;42318;48.452;19.526;2024-03-02T07:40:42;97818.44;;;22.15;55.24
56414;BME280;42318;48.452;19.526;2024-03-02T07:43:44;97812.19;;;22.10;55.32
56414;BME280;42318;48.452;19.526;2024-03-02T07:46:45;97818.72;;;22.14;55.26
56414;BME280;42318;48.452;19.526;2024-03-02T07:49:52;97821.44;;;22.14;55.29
56414;BME280;42318;48.452;19.526;2024-03-02T07:52:53;97823.91;;;22.15;55.15
56414;BME280;42318;48.452;19.526;2024-03-02T07:55:53;97821.16;;;22.15;55.36
56414;BME280;42318;48.452;19.526;2024-03-02T07:58:54;97823.38;;;22.13;55.31
56414;BME280;42318;48.452;19.526;2024-03-02T08:01:57;97825.00;;;22.14;55.45
56414;BME280;42318;48.452;19.526;2024-03-02T08:04:58;97827.72;;;22.14;55.44
56414;BME280;42318;48.452;19.526;2024-03-02T08:07:59;97832.09;;;22.15;55.52
56414;BME280;42318;48.452;19.526;2024-03-02T08:10:59;97834.28;;;22.13;55.13
56414;BME280;42318;48.452;19.526;2024-03-02T08:14:00;97832.09;;;22.15;55.35
56414;BME280;42318;48.452;19.526;2024-03-02T08:17:00;97833.19;;;22.14;55.25
56414;BME280;42318;48.452;19.526;2024-03-02T08:20:02;97829.63;;;22.14;55.30
56414;BME280;42318;48.452;19.526;2024-03-02T08:23:03;97831.56;;;22.13;55.11
56414;BME280;42318;48.452;19.526;2024-03-02T08:26:04;97837.00;;;22.13;55.46
56414;BME280;42318;48.452;19.526;2024-03-02T08:29:04;97846.81;;;22.14;55.15
56414;BME280;42318;48.452;19.526;2024-03-02T08:32:05;97828.81;;;22.13;55.20
56414;BME280;42318;48.452;19.526;2024-03-02T08:35:06;97837.00;;;22.13;55.54
56414;BME280;42318;48.452;19.526;2024-03-02T08:38:07;97837.00;;;22.13;55.52
56414;BME280;42318;48.452;19.526;2024-03-02T08:41:07;97839.47;;;22.15;55.30
56414;BME280;42318;48.452;19.526;2024-03-02T08:44:09;97836.72;;;22.15;55.38
56414;BME280;42318;48.452;19.526;2024-03-02T08:47:09;97838.63;;;22.14;55.42
56414;BME280;42318;48.452;19.526;2024-03-02T08:50:10;97834.00;;;22.15;55.28
56414;BME280;42318;48.452;19.526;2024-03-02T08:53:11;97841.38;;;22.14;55.31
56414;BME280;42318;48.452;19.526;2024-03-02T08:56:12;97835.63;;;22.11;55.52
56414;BME280;42318;48.452;19.526;2024-03-02T08:59:13;97828.53;;;22.15;55.41
56414;BME280;42318;48.452;19.526;2024-03-02T09:02:14;97839.47;;;22.15;55.44
56414;BME280;42318;48.452;19.526;2024-03-02T09:05:15;97833.19;;;22.09;55.46
56414;BME280;42318;48.452;19.526;2024-03-02T09:08:15;97820.66;;;22.08;55.55
56414;BME280;42318;48.452;19.526;2024-03-02T09:11:16;97825.81;;;22.15;55.33
56414;BME280;42318;48.452;19.526;2024-03-02T09:14:17;97823.09;;;22.15;55.48
56414;BME280;42318;48.452;19.526;2024-03-02T09:17:19;97833.72;;;22.16;55.78
56414;BME280;42318;48.452;19.526;2024-03-02T09:20:19;97842.19;;;22.15;55.37
56414;BME280;42318;48.452;19.526;2024-03-02T09:23:20;97834.28;;;22.13;55.72
56414;BME280;42318;48.452;19.526;2024-03-02T09:26:21;97833.19;;;22.14;55.29
56414;BME280;42318;48.452;19.526;2024-03-02T09:29:25;97834.28;;;22.13;55.28
56414;BME280;42318;48.452;19.526;2024-03-02T09:32:25;97830.47;;;22.14;55.42
56414;BME280;42318;48.452;19.526;2024-03-02T09:35:26;97832.09;;;22.15;55.80
56414;BME280;42318;48.452;19.526;2024-03-02T09:38:26;97832.09;;;22.15;55.50
56414;BME280;42318;48.452;19.526;2024-03-02T09:41:27;97823.38;;;22.08;55.41
56414;BME280;42318;48.452;19.526;2024-03-02T09:44:29;97836.72;;;22.15;55.70
56414;BME280;42318;48.452;19.526;2024-03-02T09:47:29;97839.16;;;22.16;55.85
56414;BME280;42318;48.452;19.526;2024-03-02T09:50:30;97832.91;;;22.16;55.68
56414;BME280;42318;48.452;19.526;2024-03-02T09:53:32;97834.00;;;22.15;56.01
56414;BME280;42318;48.452;19.526;2024-03-02T09:56:34;97829.88;;;22.17;55.72
56414;BME280;42318;48.452;19.526;2024-03-02T09:59:34;97832.09;;;22.15;56.00
56414;BME280;42318;48.452;19.526;2024-03-02T10:02:35;97833.72;;;22.16;56.11
56414;BME280;42318;48.452;19.526;2024-03-02T10:05:36;97833.72;;;22.16;55.87
56414;BME280;42318;48.452;19.526;2024-03-02T10:08:43;97826.63;;;22.15;56.09
56414;BME280;42318;48.452;19.526;2024-03-02T10:11:44;97828.31;;;22.11;55.94
56414;BME280;42318;48.452;19.526;2024-03-02T10:14:45;97830.97;;;22.16;55.98
56414;BME280;42318;48.452;19.526;2024-03-02T10:17:45;97825.00;;;22.14;56.05
56414;BME280;42318;48.452;19.526;2024-03-02T10:20:46;97827.97;;;22.18;56.34
56414;BME280;42318;48.452;19.526;2024-03-02T10:23:49;97826.88;;;22.19;56.13
56414;BME280;42318;48.452;19.526;2024-03-02T10:26:50;97834.25;;;22.18;56.58
56414;BME280;42318;48.452;19.526;2024-03-02T10:29:51;97834.81;;;22.15;56.82
56414;BME280;42318;48.452;19.526;2024-03-02T10:32:55;97823.31;;;22.18;56.68
56414;BME280;42318;48.452;19.526;2024-03-02T10:35:56;97828.50;;;22.20;56.65
56414;BME280;42318;48.452;19.526;2024-03-02T10:38:57;97822.56;;;22.13;56.94
56414;BME280;42318;48.452;19.526;2024-03-02T10:41:59;97830.06;;;22.26;58.64
56414;BME280;42318;48.452;19.526;2024-03-02T10:45:05;97827.59;;;22.30;59.17
56414;BME280;42318;48.452;19.526;2024-03-02T10:48:07;97828.13;;;22.32;59.98
56414;BME280;42318;48.452;19.526;2024-03-02T10:51:08;97822.09;;;22.35;59.80
56414;BME280;42318;48.452;19.526;2024-03-02T10:54:08;97820.16;;;22.35;61.11
56414;BME280;42318;48.452;19.526;2024-03-02T10:57:10;97819.88;;;22.37;61.69
56414;BME280;42318;48.452;19.526;2024-03-02T11:00:12;97826.41;;;22.41;60.86
56414;BME280;42318;48.452;19.526;2024-03-02T11:03:15;97816.03;;;22.38;60.39
56414;BME280;42318;48.452;19.526;2024-03-02T11:06:16;97804.66;;;22.31;60.23
56414;BME280;42318;48.452;19.526;2024-03-02T11:09:20;97811.41;;;22.38;60.17
56414;BME280;42318;48.452;19.526;2024-03-02T11:12:48;97811.41;;;22.38;60.55
56414;BME280;42318;48.452;19.526;2024-03-02T11:15:55;97817.16;;;22.37;59.77
56414;BME280;42318;48.452;19.526;2024-03-02T11:18:59;97819.06;;;22.36;60.20
56414;BME280;42318;48.452;19.526;2024-03-02T11:22:02;97810.06;;;22.36;60.22
56414;BME280;42318;48.452;19.526;2024-03-02T11:25:03;97816.63;;;22.35;59.68
56414;BME280;42318;48.452;19.526;2024-03-02T11:28:06;97812.78;;;22.36;59.77
56414;BME280;42318;48.452;19.526;2024-03-02T11:31:09;97806.81;;;22.34;59.71
56414;BME280;42318;48.452;19.526;2024-03-02T11:34:29;97810.06;;;22.36;59.71
56414;BME280;42318;48.452;19.526;2024-03-02T11:37:30;97813.09;;;22.34;59.30
56414;BME280;42318;48.452;19.526;2024-03-02T11:40:31;97808.44;;;22.35;59.15
56414;BME280;42318;48.452;19.526;2024-03-02T11:43:32;97801.69;;;22.27;58.88
56414;BME280;42318;48.452;19.526;2024-03-02T11:46:33;97802.50;;;22.28;59.36
56414;BME280;42318;48.452;19.526;2024-03-02T11:49:51;97810.63;;;22.33;58.91
56414;BME280;42318;48.452;19.526;2024-03-02T11:52:55;97814.47;;;22.32;59.01
56414;BME280;42318;48.452;19.526;2024-03-02T11:55:57;97811.75;;;22.32;58.71
56414;BME280;42318;48.452;19.526;2024-03-02T11:58:58;97792.16;;;22.24;58.71
56414;BME280;42318;48.452;19.526;2024-03-02T12:02:00;97808.19;;;22.31;58.52
56414;BME280;42318;48.452;19.526;2024-03-02T12:05:02;97802.75;;;22.31;58.21
56414;BME280;42318;48.452;19.526;2024-03-02T12:08:06;97801.94;;;22.31;58.20
56414;BME280;42318;48.452;19.526;2024-03-02T12:11:07;97802.22;;;22.29;58.22
56414;BME280;42318;48.452;19.526;2024-03-02T12:14:11;97807.69;;;22.29;58.25
56414;BME280;42318;48.452;19.526;2024-03-02T12:17:13;97800.59;;;22.28;58.20
56414;BME280;42318;48.452;19.526;2024-03-02T12:20:14;97803.31;;;22.28;57.94
56414;BME280;42318;48.452;19.526;2024-03-02T12:23:14;97806.03;;;22.28;57.79
56414;BME280;42318;48.452;19.526;2024-03-02T12:26:15;97802.50;;;22.28;57.46
56414;BME280;42318;48.452;19.526;2024-03-02T12:29:16;97794.31;;;22.28;57.79
56414;BME280;42318;48.452;19.526;2024-03-02T12:32:17;97796.28;;;22.22;57.48
56414;BME280;42318;48.452;19.526;2024-03-02T12:35:18;97801.69;;;22.27;57.46
56414;BME280;42318;48.452;19.526;2024-03-02T12:38:18;97801.69;;;22.27;57.51
56414;BME280;42318;48.452;19.526;2024-03-02T12:41:20;97790.53;;;22.23;57.31
56414;BME280;42318;48.452;19.526;2024-03-02T12:44:21;97788.66;;;22.19;57.40
56414;BME280;42318;48.452;19.526;2024-03-02T12:47:22;97793.78;;;22.25;56.94
56414;BME280;42318;48.452;19.526;2024-03-02T12:50:23;97794.59;;;22.26;57.09
56414;BME280;42318;48.452;19.526;2024-03-02T12:53:24;97798.44;;;22.25;57.23
56414;BME280;42318;48.452;19.526;2024-03-02T12:56:25;97798.44;;;22.25;56.98
56414;BME280;42318;48.452;19.526;2024-03-02T12:59:26;97792.44;;;22.23;57.12
56414;BME280;42318;48.452;19.526;2024-03-02T13:02:30;97786.72;;;22.24;56.82
56414;BME280;42318;48.452;19.526;2024-03-02T13:05:31;97779.66;;;22.18;57.08
56414;BME280;42318;48.452;19.526;2024-03-02T13:08:35;97790.25;;;22.25;56.92
56414;BME280;42318;48.452;19.526;2024-03-02T13:11:36;97786.72;;;22.24;56.85
56414;BME280;42318;48.452;19.526;2024-03-02T13:14:38;97775.03;;;22.19;56.82
56414;BME280;42318;48.452;19.526;2024-03-02T13:17:39;97779.91;;;22.22;56.93
56414;BME280;42318;48.452;19.526;2024-03-02T13:20:39;97778.53;;;22.24;56.61
56414;BME280;42318;48.452;19.526;2024-03-02T13:23:40;97763.38;;;22.08;56.94
56414;BME280;42318;48.452;19.526;2024-03-02T13:26:42;97774.16;;;22.23;56.55
56414;BME280;42318;48.452;19.526;2024-03-02T13:29:43;97779.63;;;22.23;56.64
56414;BME280;42318;48.452;19.526;2024-03-02T13:32:43;97783.97;;;22.24;56.56
56414;BME280;42318;48.452;19.526;2024-03-02T13:35:45;97785.06;;;22.23;56.51
56414;BME280;42318;48.452;19.526;2024-03-02T13:38:45;97790.53;;;22.23;56.78
56414;BME280;42318;48.452;19.526;2024-03-02T13:41:46;97788.09;;;22.22;56.73
56414;BME280;42318;48.452;19.526;2024-03-02T13:44:52;97798.72;;;22.23;56.57
56414;BME280;42318;48.452;19.526;2024-03-02T13:47:54;97784.56;;;22.21;56.79
56414;BME280;42318;48.452;19.526;2024-03-02T13:50:54;97781.81;;;22.21;56.34
56414;BME280;42318;48.452;19.526;2024-03-02T13:53:55;97773.97;;;22.15;56.76
56414;BME280;42318;48.452;19.526;2024-03-02T13:56:59;97784.59;;;22.16;56.45
56414;BME280;42318;48.452;19.526;2024-03-02T14:00:00;97788.38;;;22.20;56.70
56414;BME280;42318;48.452;19.526;2024-03-02T14:03:03;97788.38;;;22.20;56.40
56414;BME280;42318;48.452;19.526;2024-03-02T14:06:04;97781.28;;;22.19;56.54
56414;BME280;42318;48.452;19.526;2024-03-02T14:09:05;97786.75;;;22.19;56.58
56414;BME280;42318;48.452;19.526;2024-03-02T14:12:07;97789.47;;;22.19;56.49
56414;BME280;42318;48.452;19.526;2024-03-02T14:15:07;97794.13;;;22.19;56.86
56414;BME280;42318;48.452;19.526;2024-03-02T14:18:10;97796.03;;;22.18;56.61
56414;BME280;42318;48.452;19.526;2024-03-02T14:21:11;97805.84;;;22.19;57.08
56414;BME280;42318;48.452;19.526;2024-03-02T14:24:12;97802.59;;;22.17;57.24
56414;BME280;42318;48.452;19.526;2024-03-02T14:27:12;97788.66;;;22.19;57.13
56414;BME280;42318;48.452;19.526;2024-03-02T14:30:14;97787.84;;;22.18;57.46
56414;BME280;42318;48.452;19.526;2024-03-02T14:33:15;97794.66;;;22.21;57.04
56414;BME280;42318;48.452;19.526;2024-03-02T14:36:16;97791.91;;;22.21;57.29
56414;BME280;42318;48.452;19.526;2024-03-02T14:39:17;97785.94;;;22.19;57.43
56414;BME280;42318;48.452;19.526;2024-03-02T14:42:20;97783.75;;;22.21;57.42
56414;BME280;42318;48.452;19.526;2024-03-02T14:45:20;97780.47;;;22.19;57.39
56414;BME280;42318;48.452;19.526;2024-03-02T14:48:21;97782.63;;;22.22;57.11
56414;BME280;42318;48.452;19.526;2024-03-02T14:51:22;97790.81;;;22.22;57.06
56414;BME280;42318;48.452;19.526;2024-03-02T14:54:23;97793.56;;;22.22;57.43
56414;BME280;42318;48.452;19.526;2024-03-02T14:57:24;97794.66;;;22.21;56.96
56414;BME280;42318;48.452;19.526;2024-03-02T15:00:24;97787.28;;;22.21;57.07
56414;BME280;42318;48.452;19.526;2024-03-02T15:03:25;97794.38;;;22.22;56.85
56414;BME280;42318;48.452;19.526;2024-03-02T15:06:26;97791.09;;;22.20;57.15
56414;BME280;42318;48.452;19.526;2024-03-02T15:09:26;97792.22;;;22.19;57.03
56414;BME280;42318;48.452;19.526;2024-03-02T15:12:28;97790.28;;;22.20;57.07
56414;BME280;42318;48.452;19.526;2024-03-02T15:15:29;97796.56;;;22.20;57.33
56414;BME280;42318;48.452;19.526;2024-03-02T15:18:29;97799.00;;;22.22;57.23
56414;BME280;42318;48.452;19.526;2024-03-02T15:21:30;97800.41;;;22.19;57.11
56414;BME280;42318;48.452;19.526;2024-03-02T15:24:31;97799.28;;;22.20;57.07
56414;BME280;42318;48.452;19.526;2024-03-02T15:27:32;97798.53;;;22.15;56.89
56414;BME280;42318;48.452;19.526;2024-03-02T15:30:33;97793.66;;;22.12;56.70
56414;BME280;42318;48.452;19.526;2024-03-02T15:33:34;97806.44;;;22.16;56.93
56414;BME280;42318;48.452;19.526;2024-03-02T15:36:34;97809.16;;;22.16;56.78
56414;BME280;42318;48.452;19.526;2024-03-02T15:39:38;97807.53;;;22.15;57.12
56414;BME280;42318;48.452;19.526;2024-03-02T15:42:39;97804.28;;;22.13;56.71
56414;BME280;42318;48.452;19.526;2024-03-02T15:45:39;97808.91;;;22.13;56.70
56414;BME280;42318;48.452;19.526;2024-03-02T15:48:40;97804.56;;;22.12;56.89
56414;BME280;42318;48.452;19.526;2024-03-02T15:51:41;97802.09;;;22.10;56.58